FW5820 New Haven CT US current weather conditions

sailwx.info

Wind from 131 at 7 knots gusting 9

Air temperature 6.7° C
Dewpoint 0.1° C

Last reported at 2019-Dec-06 19:03 UTC.
Time now 2019-Dec-06 20:10 UTC

Location: N 41°18' W 072°56'.
View on Google Maps.

See reports from other nearby stations

  
Tides and Currents Weather Stations Pressure Air Temp Water Temp Dewpoint Dewpoint Depression Visibility Wind Speed Wind Dir Waves Ship Positions
date/time (UTC)wind fromknots sea level pressurealtimeterstation pressurevisibilityair tempwater tempwave heightnotes
2019-Dec-06 19:03 131 7 gusting 9 6.7
2019-Dec-06 18:58 164 11 gusting 13 6.7
2019-Dec-06 18:53 166 12 gusting 15 6.7
2019-Dec-06 18:48 146 5 gusting 9 6.7
2019-Dec-06 18:43 140 12 gusting 16 6.7
2019-Dec-06 18:38 124 9 gusting 11 6.1
2019-Dec-06 18:33 116 12 gusting 16 6.1
2019-Dec-06 18:28 158 11 gusting 13 6.1
2019-Dec-06 18:23 196 9 gusting 12 6.1
2019-Dec-06 18:18 185 9 gusting 12 6.1
2019-Dec-06 18:13 156 6 gusting 7 6.1
2019-Dec-06 18:08 169 15 gusting 18 6.1
2019-Dec-06 18:03 139 6 gusting 11 6.1
2019-Dec-06 17:58 262 6 gusting 7 6.1
2019-Dec-06 17:53 159 13 gusting 16 5.6
2019-Dec-06 17:48 148 7 gusting 10 5.6
2019-Dec-06 17:43 164 7 gusting 8 6.1
2019-Dec-06 17:37 157 5 gusting 7 6.1
2019-Dec-06 17:32 168 11 gusting 12 5.6
2019-Dec-06 17:27 159 14 gusting 19 5.6
2019-Dec-06 17:17 238 3 gusting 7 6.1
2019-Dec-06 17:12 154 13 gusting 16 5.6
2019-Dec-06 17:07 122 11 gusting 13 5.6
2019-Dec-06 17:02 151 8 gusting 10 5.6
2019-Dec-06 16:57 206 13 gusting 15 5.6
2019-Dec-06 16:52 156 7 gusting 10 5.6
2019-Dec-06 16:47 158 14 gusting 17 5.6
2019-Dec-06 16:42 172 13 gusting 15 5.6
2019-Dec-06 16:37 156 6 gusting 8 5.0
2019-Dec-06 16:32 158 6 gusting 8 5.0
2019-Dec-06 16:27 155 7 gusting 13 5.0
2019-Dec-06 16:22 156 7 gusting 11 5.0
2019-Dec-06 16:17 244 10 gusting 12 5.0
2019-Dec-06 16:12 216 7 gusting 9 4.4
2019-Dec-06 16:07 207 8 gusting 12 4.4
2019-Dec-06 16:02 169 7 gusting 13 4.4
2019-Dec-06 15:57 167 8 gusting 11 4.4
2019-Dec-06 15:52 153 8 gusting 13 4.4
2019-Dec-06 15:47 177 14 gusting 16 3.9
2019-Dec-06 15:42 149 5 gusting 7 3.9
2019-Dec-06 15:37 099 8 gusting 12 4.4
2019-Dec-06 15:32 153 16 gusting 19 3.9
2019-Dec-06 15:27 157 6 gusting 10 3.9
2019-Dec-06 15:22 184 8 gusting 12 4.4
2019-Dec-06 15:17 140 13 gusting 15 3.9
2019-Dec-06 15:12 281 5 gusting 8 3.9
2019-Dec-06 15:07 267 5 gusting 8 3.3
2019-Dec-06 15:02 252 3 gusting 4 3.3
2019-Dec-06 14:57 187 6 gusting 8 3.3
2019-Dec-06 14:52 184 9 gusting 10 3.3
2019-Dec-06 14:47 154 4 gusting 6 3.3
2019-Dec-06 14:41 166 0 gusting 2 3.3
2019-Dec-06 14:36 234 2 gusting 3 2.8
2019-Dec-06 14:31 146 3 gusting 5 2.8
2019-Dec-06 14:26 155 2 gusting 4 2.2
2019-Dec-06 14:21 185 8 gusting 10 2.2
2019-Dec-06 14:16 191 5 gusting 8 2.2
2019-Dec-06 14:11 151 6 gusting 8 2.2
2019-Dec-06 14:06 195 3 gusting 4 2.2
2019-Dec-06 14:01 125 3 gusting 5 1.7
2019-Dec-06 13:56 120 1 gusting 3 1.7
2019-Dec-06 13:51 151 7 gusting 9 1.7
2019-Dec-06 13:46 255 4 gusting 4 1.7
2019-Dec-06 13:41 175 7 gusting 10 1.7
2019-Dec-06 13:36 217 6 gusting 7 1.7
2019-Dec-06 13:31 169 2 gusting 2 1.7
2019-Dec-06 13:26 169 2 gusting 3 1.7
2019-Dec-06 13:21 153 3 gusting 5 1.7
2019-Dec-06 13:16 152 2 gusting 3 1.1
2019-Dec-06 13:11 177 4 gusting 5 1.1
2019-Dec-06 13:06 174 3 gusting 6 1.1
2019-Dec-06 13:01 137 4 gusting 5 1.1
2019-Dec-06 12:56 171 5 gusting 5 1.1
2019-Dec-06 12:51 174 4 gusting 6 1.1
2019-Dec-06 12:46 157 4 gusting 5 0.6
2019-Dec-06 12:41 172 6 gusting 7 0.6
2019-Dec-06 12:36 144 4 gusting 4 1.1
2019-Dec-06 12:31 188 3 gusting 4 1.1
2019-Dec-06 12:26 185 4 gusting 5 1.1
2019-Dec-06 12:21 124 4 gusting 5 1.1
2019-Dec-06 12:16 121 4 gusting 5 1.1
2019-Dec-06 12:11 145 0 gusting 1 1.1
2019-Dec-06 12:06 139 3 gusting 6 1.1
2019-Dec-06 12:01 169 3 gusting 4 1.1
2019-Dec-06 11:55 158 4 gusting 5 0.6
2019-Dec-06 11:50 129 1 gusting 2 0.6
2019-Dec-06 11:45 222 2 gusting 3 1.1
2019-Dec-06 11:40 209 2 gusting 2 0.6
2019-Dec-06 11:35 165 1 gusting 2 0.6
2019-Dec-06 11:30 252 3 gusting 3 0.6
2019-Dec-06 11:25 270 2 gusting 3 0.6
2019-Dec-06 11:20 196 2 gusting 4 0.6
2019-Dec-06 11:15 244 2 gusting 3 0.6
2019-Dec-06 11:10 253 6 gusting 6 0.6
2019-Dec-06 11:05 253 5 gusting 5 0.6
2019-Dec-06 11:00 257 5 gusting 6 0.6
2019-Dec-06 10:55 192 2 gusting 2 0.6
2019-Dec-06 10:50 222 3 gusting 3 0.6
2019-Dec-06 10:45 251 2 gusting 4 0.6
2019-Dec-06 10:40 259 5 gusting 6 0.6
2019-Dec-06 10:35 254 4 gusting 5 0.6
2019-Dec-06 10:30 313 4 gusting 5 0.6
2019-Dec-06 10:25 322 6 gusting 7 0.6
2019-Dec-06 10:20 293 5 gusting 7 0.6
2019-Dec-06 10:15 133 1 gusting 2 -0.0
2019-Dec-06 10:10 267 1 gusting 2 -0.0
2019-Dec-06 10:05 327 5 gusting 5 -0.0
2019-Dec-06 10:00 210 3 gusting 4 -0.0
2019-Dec-06 09:55 177 4 gusting 4 0.6
2019-Dec-06 09:50 251 6 gusting 7 -0.0
2019-Dec-06 09:45 299 4 gusting 5 0.6
2019-Dec-06 09:40 310 6 gusting 7 -0.0
2019-Dec-06 09:35 248 3 gusting 4 0.6
2019-Dec-06 09:30 303 4 gusting 5 -0.0
2019-Dec-06 09:25 271 2 gusting 3 0.6
2019-Dec-06 09:20 046 3 gusting 4 -0.0
2019-Dec-06 09:15 291 4 gusting 5 -0.0
2019-Dec-06 09:10 175 1 gusting 2 -0.0
2019-Dec-06 09:05 230 3 gusting 4 0.6
2019-Dec-06 09:00 175 0 gusting 2 -0.0
2019-Dec-06 08:55 285 3 gusting 5 0.6
2019-Dec-06 08:49 179 3 gusting 4 0.6
2019-Dec-06 08:44 255 3 gusting 4 0.6
2019-Dec-06 08:39 303 3 gusting 4 0.6
2019-Dec-06 08:34 201 2 gusting 4 0.6
2019-Dec-06 08:29 171 2 gusting 3 0.6
2019-Dec-06 08:24 314 5 gusting 6 0.6
2019-Dec-06 08:19 263 5 gusting 6 0.6
2019-Dec-06 08:14 209 2 gusting 4 0.6
2019-Dec-06 08:09 231 4 gusting 5 0.6
2019-Dec-06 08:04 196 1 gusting 2 0.6
2019-Dec-06 07:59 195 2 gusting 3 0.6
2019-Dec-06 07:54 174 3 gusting 5 0.6
2019-Dec-06 07:49 142 3 gusting 4 0.6
2019-Dec-06 07:44 207 3 gusting 4 0.6
2019-Dec-06 07:39 250 3 gusting 4 0.6
2019-Dec-06 07:34 200 1 gusting 2 0.6
2019-Dec-06 07:29 283 6 gusting 7 0.6
2019-Dec-06 07:24 271 5 gusting 5 1.1
2019-Dec-06 07:19 214 5 gusting 7 0.6
2019-Dec-06 07:14 247 3 gusting 5 1.1
2019-Dec-06 07:09 281 3 gusting 5 1.1
2019-Dec-06 07:04 211 5 gusting 7 1.1
2019-Dec-06 06:59 288 6 gusting 6 0.6
2019-Dec-06 06:54 265 5 gusting 7 0.6
2019-Dec-06 06:49 276 6 gusting 8 0.6
2019-Dec-06 06:44 283 5 gusting 6 0.6
2019-Dec-06 06:39 315 5 gusting 7 0.6
2019-Dec-06 06:34 336 5 gusting 6 0.6
2019-Dec-06 06:29 139 5 gusting 6 1.1
2019-Dec-06 06:24 277 7 gusting 8 1.1
2019-Dec-06 06:19 324 7 gusting 9 1.1
2019-Dec-06 06:14 303 9 gusting 11 1.1
2019-Dec-06 06:09 040 7 gusting 10 1.1
2019-Dec-06 06:04 283 5 gusting 6 1.1
2019-Dec-06 05:59 294 8 gusting 10 1.1
2019-Dec-06 05:54 334 7 gusting 10 1.1
2019-Dec-06 05:48 318 7 gusting 8 1.1
2019-Dec-06 05:43 299 7 gusting 8 1.1
2019-Dec-06 05:38 322 7 gusting 8 1.1
2019-Dec-06 05:33 209 6 gusting 6 1.1
2019-Dec-06 05:28 197 2 gusting 3 1.7
2019-Dec-06 05:23 293 7 gusting 8 1.1
2019-Dec-06 05:18 114 2 gusting 4 1.1
2019-Dec-06 05:13 343 7 gusting 8 1.7
2019-Dec-06 05:08 004 9 gusting 10 1.1
2019-Dec-06 05:03 283 6 gusting 9 1.7
2019-Dec-06 04:58 265 8 gusting 10 1.7
2019-Dec-06 04:53 259 9 gusting 10 1.7
2019-Dec-06 04:48 187 5 gusting 7 1.7
2019-Dec-06 04:43 271 4 gusting 5 1.7
2019-Dec-06 04:38 329 5 gusting 7 1.7
2019-Dec-06 04:33 084 2 gusting 3 1.7
2019-Dec-06 04:28 259 3 gusting 3 1.7
2019-Dec-06 04:23 277 5 gusting 6 1.7
2019-Dec-06 04:18 203 3 gusting 4 1.7
2019-Dec-06 04:13 017 2 gusting 4 1.7
2019-Dec-06 04:08 035 6 gusting 9 1.7
2019-Dec-06 04:03 347 6 gusting 9 1.7
2019-Dec-06 03:58 071 3 gusting 5 1.7
2019-Dec-06 03:53 016 3 gusting 4 1.7
2019-Dec-06 03:48 179 0 gusting 1 1.7
2019-Dec-06 03:43 266 4 gusting 5 1.7
2019-Dec-06 03:38 009 3 gusting 4 1.7
2019-Dec-06 03:33 057 2 gusting 3 1.7
2019-Dec-06 03:28 240 2 gusting 4 1.7
2019-Dec-06 03:23 251 2 gusting 3 2.2
2019-Dec-06 03:18 355 4 gusting 6 2.2
2019-Dec-06 03:13 187 3 gusting 4 2.2
2019-Dec-06 03:08 332 4 gusting 5 2.2
2019-Dec-06 03:03 191 1 gusting 2 2.2
2019-Dec-06 02:58 107 1 gusting 2 2.2
2019-Dec-06 02:53 214 3 gusting 4 2.2
2019-Dec-06 02:48 264 4 gusting 5 2.2
2019-Dec-06 02:42 175 1 gusting 3 2.2
2019-Dec-06 02:37 089 2 gusting 3 2.2
2019-Dec-06 02:32 176 1 gusting 2 2.2
2019-Dec-06 02:27 305 6 gusting 7 2.2
2019-Dec-06 02:22 331 6 gusting 9 2.2
2019-Dec-06 02:17 276 10 gusting 13 2.2
2019-Dec-06 02:12 289 4 gusting 6 2.2
2019-Dec-06 02:07 175 3 gusting 4 2.2
2019-Dec-06 02:02 346 6 gusting 10 2.2
2019-Dec-06 01:57 315 12 gusting 13 2.2
2019-Dec-06 01:52 275 11 gusting 13 2.2
2019-Dec-06 01:47 263 5 gusting 7 2.8
2019-Dec-06 01:37 322 10 gusting 12 2.8
2019-Dec-06 01:32 154 5 gusting 6 2.8
2019-Dec-06 01:27 256 7 gusting 9 2.8
2019-Dec-06 01:22 269 6 gusting 8 2.8
2019-Dec-06 01:17 044 7 gusting 10 2.8
2019-Dec-06 01:12 002 7 gusting 9 2.8
2019-Dec-06 01:07 069 4 gusting 6 2.8
2019-Dec-06 01:02 050 6 gusting 7 2.8
2019-Dec-06 00:57 076 11 gusting 13 2.8
2019-Dec-06 00:52 251 7 gusting 9 2.8
2019-Dec-06 00:47 227 5 gusting 6 2.8
2019-Dec-06 00:42 317 6 gusting 9 2.8
2019-Dec-06 00:37 343 3 gusting 5 2.8
2019-Dec-06 00:32 016 8 gusting 10 2.8
2019-Dec-06 00:27 265 2 gusting 4 2.8
2019-Dec-06 00:22 231 2 gusting 6 2.8
2019-Dec-06 00:17 125 2 gusting 3 2.8
2019-Dec-06 00:12 348 2 gusting 3 2.8
2019-Dec-06 00:07 237 3 gusting 3 2.8
2019-Dec-06 00:02 313 6 gusting 6 2.8
2019-Dec-05 23:57 243 4 gusting 4 2.8
2019-Dec-05 23:52 156 2 gusting 3 2.8
2019-Dec-05 23:46 177 1 gusting 2 2.8
2019-Dec-05 23:41 222 2 gusting 3 2.8
2019-Dec-05 23:36 181 0 gusting 1 2.8
2019-Dec-05 23:31 147 2.8
2019-Dec-05 23:26 159 1 gusting 2 2.8
2019-Dec-05 23:16 051 3 gusting 4 2.8
2019-Dec-05 23:11 293 5 gusting 7 2.8
2019-Dec-05 23:06 103 1 gusting 3 2.8
2019-Dec-05 23:01 040 4 gusting 6 2.8
2019-Dec-05 22:56 130 6 gusting 9 2.8
2019-Dec-05 22:51 018 2 gusting 3 2.8
2019-Dec-05 22:46 039 8 gusting 11 2.8
2019-Dec-05 22:36 063 4 gusting 8 2.2
2019-Dec-05 22:31 018 6 gusting 9 2.8
2019-Dec-05 22:26 068 8 gusting 13 2.8
2019-Dec-05 22:21 080 5 gusting 6 3.9
2019-Dec-05 22:16 011 9 gusting 17 3.9
2019-Dec-05 22:11 197 9 gusting 12 3.9
2019-Dec-05 22:06 336 7 gusting 9 3.9
2019-Dec-05 22:01 312 6 gusting 9 3.9
2019-Dec-05 21:56 282 12 gusting 13 3.9
2019-Dec-05 21:51 313 5 gusting 8 3.9
2019-Dec-05 21:46 251 6 gusting 7 3.9
2019-Dec-05 21:41 273 7 gusting 9 3.9
2019-Dec-05 21:36 338 8 gusting 10 3.9
2019-Dec-05 21:31 075 3 gusting 4 3.9
2019-Dec-05 21:26 265 7 gusting 11 3.9
2019-Dec-05 21:21 277 8 gusting 10 3.9
2019-Dec-05 21:16 187 4 gusting 6 3.9
2019-Dec-05 21:11 026 2 gusting 4 3.9
2019-Dec-05 21:06 357 8 gusting 12 3.9
2019-Dec-05 21:01 290 8 gusting 11 3.9
2019-Dec-05 20:56 296 14 gusting 18 3.9
2019-Dec-05 20:51 351 8 gusting 12 4.4
2019-Dec-05 20:45 207 5 gusting 6 4.4
2019-Dec-05 20:40 037 5 gusting 5 4.4
2019-Dec-05 20:35 357 4 gusting 7 4.4
2019-Dec-05 20:30 259 7 gusting 10 4.4
2019-Dec-05 20:25 248 13 gusting 15 4.4
2019-Dec-05 20:20 335 11 gusting 16 4.4
2019-Dec-05 20:15 319 4 gusting 5 4.4
2019-Dec-05 20:10 012 10 gusting 17 4.4
2019-Dec-05 20:05 052 5 gusting 9 4.4
2019-Dec-05 20:00 177 5 gusting 8 5.0
2019-Dec-05 19:55 314 6 gusting 9 5.0
2019-Dec-05 19:50 219 2 gusting 3 4.4
2019-Dec-05 19:45 023 1 gusting 2 4.4
2019-Dec-05 19:40 292 4 gusting 5 4.4
2019-Dec-05 19:35 186 2 gusting 3 3.9
2019-Dec-05 19:30 353 9 gusting 10 4.4
2019-Dec-05 19:25 264 3 gusting 6 4.4
2019-Dec-05 19:20 060 6 gusting 8 3.9
2019-Dec-05 19:15 052 5 gusting 7 3.9
2019-Dec-05 19:10 038 9 gusting 12 3.9
2019-Dec-05 19:05 354 8 gusting 12 3.9
2019-Dec-05 19:00 043 3 gusting 6 3.9
2019-Dec-05 18:55 013 4 gusting 6 3.9
2019-Dec-05 18:50 358 9 gusting 10 4.4
2019-Dec-05 18:45 007 6 gusting 9 4.4
2019-Dec-05 18:40 293 7 gusting 9 4.4
2019-Dec-05 18:35 007 3 gusting 5 4.4
2019-Dec-05 18:25 282 9 gusting 11 4.4
2019-Dec-05 18:20 276 11 gusting 12 5.0
2019-Dec-05 18:15 294 1 gusting 3 5.0
2019-Dec-05 18:10 248 3 gusting 4 4.4
2019-Dec-05 18:05 274 5 gusting 7 5.0
2019-Dec-05 18:00 114 6 gusting 7 5.0
2019-Dec-05 17:55 038 3 gusting 4 4.4
2019-Dec-05 17:50 069 5 gusting 7 4.4
2019-Dec-05 17:45 320 4 gusting 9 4.4
2019-Dec-05 17:40 097 4 gusting 8 4.4
2019-Dec-05 17:35 322 8 gusting 12 4.4
2019-Dec-05 17:29 092 3 gusting 4 4.4
2019-Dec-05 17:24 069 2 gusting 3 4.4
2019-Dec-05 17:19 034 7 gusting 9 4.4
2019-Dec-05 17:14 285 8 gusting 10 4.4
2019-Dec-05 17:09 316 5 gusting 6 4.4
2019-Dec-05 17:04 102 4 gusting 6 5.0
2019-Dec-05 16:59 210 5 gusting 6 5.0
2019-Dec-05 16:54 327 9 gusting 10 5.0
2019-Dec-05 16:49 052 5 gusting 6 5.0
2019-Dec-05 16:44 064 6 gusting 10 5.0
2019-Dec-05 16:39 139 9 gusting 13 5.0
2019-Dec-05 16:34 042 3 gusting 4 5.0
2019-Dec-05 16:29 028 4 gusting 5 5.0
2019-Dec-05 16:24 035 6 gusting 8 5.6
2019-Dec-05 16:19 043 10 gusting 13 5.0
2019-Dec-05 16:14 281 7 gusting 9 5.6
2019-Dec-05 16:09 094 4 gusting 6 6.1
2019-Dec-05 16:04 035 3 gusting 5 6.1
2019-Dec-05 15:59 165 1 gusting 4 6.1
2019-Dec-05 15:54 330 10 gusting 11 5.6
2019-Dec-05 15:49 252 11 gusting 12 5.6
2019-Dec-05 15:44 135 10 gusting 16 5.6
2019-Dec-05 15:39 018 3 gusting 4 5.6
2019-Dec-05 15:34 345 4 gusting 6 5.0
2019-Dec-05 15:29 307 13 gusting 13 5.0
2019-Dec-05 15:24 215 3 gusting 3 5.0
2019-Dec-05 15:19 226 2 gusting 4 5.0
2019-Dec-05 15:14 241 5 gusting 6 5.0
2019-Dec-05 15:09 097 4 gusting 5 4.4
2019-Dec-05 15:04 252 6 gusting 9 4.4
2019-Dec-05 14:59 067 3 gusting 5 4.4
2019-Dec-05 14:54 060 10 gusting 13 4.4
2019-Dec-05 14:49 280 6 gusting 10 4.4
2019-Dec-05 14:44 134 6 gusting 9 4.4
2019-Dec-05 14:39 162 7 gusting 10 4.4
2019-Dec-05 14:34 329 7 gusting 11 4.4
2019-Dec-05 14:29 260 3 gusting 6 4.4
2019-Dec-05 14:23 041 3 gusting 4 5.0
2019-Dec-05 14:18 303 5 gusting 7 4.4
2019-Dec-05 14:13 214 3 gusting 5 3.9
2019-Dec-05 14:08 333 6 gusting 9 3.9
2019-Dec-05 14:03 287 6 gusting 7 3.9
2019-Dec-05 13:58 267 3 gusting 4 3.3
2019-Dec-05 13:53 162 3 gusting 5 3.3
2019-Dec-05 13:48 297 11 gusting 13 3.3
2019-Dec-05 13:43 122 1 gusting 2 2.8
2019-Dec-05 13:38 075 3 gusting 5 2.8
2019-Dec-05 13:33 267 6 gusting 7 2.8
2019-Dec-05 13:28 051 6 gusting 6 2.2
2019-Dec-05 13:23 309 10 gusting 12 2.2
2019-Dec-05 13:18 003 9 gusting 10 2.2
2019-Dec-05 13:13 335 6 gusting 9 2.2
2019-Dec-05 13:08 292 8 gusting 9 2.2
2019-Dec-05 13:03 291 5 gusting 6 2.2
2019-Dec-05 12:58 339 7 gusting 9 2.2
2019-Dec-05 12:53 325 7 gusting 9 2.2
2019-Dec-05 12:48 264 4 gusting 6 2.2
2019-Dec-05 12:43 289 4 gusting 5 2.2
2019-Dec-05 12:38 186 1 gusting 2 1.7
2019-Dec-05 12:33 284 1 gusting 2 1.7
2019-Dec-05 12:28 193 1 gusting 1 1.7
2019-Dec-05 12:23 004 2 gusting 3 1.7
2019-Dec-05 12:18 179 0 gusting 1 1.7
2019-Dec-05 12:13 221 1.7
2019-Dec-05 12:08 276 4 gusting 4 1.7
2019-Dec-05 12:03 139 1 gusting 2 1.7
2019-Dec-05 11:58 276 4 gusting 4 1.7
2019-Dec-05 11:53 183 2 gusting 4 1.7
2019-Dec-05 11:48 120 1.7
2019-Dec-05 11:43 041 1 gusting 3 1.7
2019-Dec-05 11:38 174 2 gusting 3 1.1
2019-Dec-05 11:33 174 1.1
2019-Dec-05 11:28 156 2 gusting 3 1.1
2019-Dec-05 11:23 336 3 gusting 4 1.1
2019-Dec-05 11:18 344 1 gusting 2 1.1
2019-Dec-05 11:13 039 2 gusting 2 1.1
2019-Dec-05 11:08 065 2 gusting 3 1.1
2019-Dec-05 11:03 124 2 gusting 3 1.1
2019-Dec-05 10:58 157 0 gusting 1 1.1
2019-Dec-05 10:52 062 3 gusting 5 1.1
2019-Dec-05 10:47 140 1 gusting 1 1.1
2019-Dec-05 10:42 319 6 gusting 6 1.1
2019-Dec-05 10:37 017 5 gusting 7 1.1
2019-Dec-05 10:32 056 2 gusting 3 1.1
2019-Dec-05 10:27 038 2 gusting 3 1.1
2019-Dec-05 10:22 165 1 gusting 2 1.1
2019-Dec-05 10:17 143 0 gusting 1 1.1
2019-Dec-05 10:07 162 0 gusting 1 1.1
2019-Dec-05 10:02 149 1 gusting 2 1.1
2019-Dec-05 09:57 281 2 gusting 3 1.1
2019-Dec-05 09:52 216 1 gusting 2 1.1
2019-Dec-05 09:47 266 4 gusting 5 1.1
2019-Dec-05 09:42 178 3 gusting 5 1.1
2019-Dec-05 09:37 318 5 gusting 5 1.1
2019-Dec-05 09:32 331 6 gusting 7 1.1
2019-Dec-05 09:27 338 2 gusting 3 1.1
2019-Dec-05 09:22 332 4 gusting 4 1.1
2019-Dec-05 09:17 317 4 gusting 6 1.1
2019-Dec-05 09:12 287 5 gusting 5 1.1
2019-Dec-05 09:02 193 4 gusting 6 1.1
2019-Dec-05 08:57 130 1 gusting 1 1.1
2019-Dec-05 08:52 177 1.1
2019-Dec-05 08:47 265 3 gusting 4 1.1
2019-Dec-05 08:42 199 1.1
2019-Dec-05 08:37 188 2 gusting 2 1.1
2019-Dec-05 08:32 153 1 gusting 2 1.1
2019-Dec-05 08:27 177 1 gusting 2 1.1
2019-Dec-05 08:22 190 0 gusting 1 1.1
2019-Dec-05 08:17 258 2 gusting 3 1.1
2019-Dec-05 08:06 179 1 gusting 2 1.7
2019-Dec-05 08:01 263 4 gusting 5 1.7
2019-Dec-05 07:56 201 1 gusting 2 1.7
2019-Dec-05 07:46 196 1 gusting 1 1.7
2019-Dec-05 07:41 219 5 gusting 5 1.1
2019-Dec-05 07:36 246 3 gusting 4 1.1
2019-Dec-05 07:31 244 5 gusting 6 1.1
2019-Dec-05 07:21 230 1 gusting 1 1.7
2019-Dec-05 07:16 264 3 gusting 3 1.7
2019-Dec-05 07:11 190 2 gusting 3 1.7
2019-Dec-05 07:06 168 1 gusting 2 1.7
2019-Dec-05 07:01 256 2 gusting 2 1.7
2019-Dec-05 06:56 174 1 gusting 2 1.7
2019-Dec-05 06:51 153 1 gusting 2 1.7
2019-Dec-05 06:46 206 0 gusting 1 1.7
2019-Dec-05 06:41 196 1 gusting 1 1.7
2019-Dec-05 06:36 167 0 gusting 1 1.7
2019-Dec-05 06:31 197 0 gusting 1 1.7
2019-Dec-05 06:26 228 2 gusting 3 1.7
2019-Dec-05 06:21 197 3 gusting 5 1.7
2019-Dec-05 06:16 155 1.7
2019-Dec-05 06:11 247 2 gusting 2 1.7
2019-Dec-05 06:06 225 2 gusting 3 1.7
2019-Dec-05 06:01 181 1 gusting 2 1.7
2019-Dec-05 05:56 192 0 gusting 1 1.7
2019-Dec-05 05:51 212 3 gusting 4 1.7
2019-Dec-05 05:46 288 3 gusting 4 1.7
2019-Dec-05 05:40 236 3 gusting 4 1.7
2019-Dec-05 05:35 238 5 gusting 6 1.7
2019-Dec-05 05:30 257 6 gusting 7 1.7
2019-Dec-05 05:25 166 2 gusting 4 1.7
2019-Dec-05 05:20 263 6 gusting 9 1.7
2019-Dec-05 05:15 243 6 gusting 8 1.7
2019-Dec-05 05:10 263 1.7
2019-Dec-05 05:05 186 2 gusting 3 1.1
2019-Dec-05 05:00 189 1 gusting 2 1.7
2019-Dec-05 04:55 185 3 gusting 4 1.7
2019-Dec-05 04:50 243 5 gusting 7 1.7
2019-Dec-05 04:45 217 2 gusting 3 1.7
2019-Dec-05 04:40 169 1 gusting 3 1.7
2019-Dec-05 04:35 184 1 gusting 2 1.7
2019-Dec-05 04:30 167 1 gusting 3 1.7
2019-Dec-05 04:25 182 5 gusting 6 1.7
2019-Dec-05 04:20 140 2 gusting 3 1.7
2019-Dec-05 04:15 287 6 gusting 7 1.7
2019-Dec-05 04:10 205 4 gusting 4 1.7
2019-Dec-05 04:05 275 3 gusting 4 1.7
2019-Dec-05 04:00 260 4 gusting 6 1.7
2019-Dec-05 03:55 257 5 gusting 6 1.7
2019-Dec-05 03:50 159 0 gusting 2 1.7
2019-Dec-05 03:45 192 1 gusting 2 1.7
2019-Dec-05 03:40 172 3 gusting 4 1.7
2019-Dec-05 03:35 161 1 gusting 2 1.7
2019-Dec-05 03:30 164 2 gusting 3 1.7
2019-Dec-05 03:25 195 1 gusting 2 1.7
2019-Dec-05 03:20 199 4 gusting 5 1.7
2019-Dec-05 03:15 194 2 gusting 3 1.7
2019-Dec-05 03:09 174 2 gusting 3 1.7
2019-Dec-05 03:04 246 1 gusting 2 1.7
2019-Dec-05 02:59 155 1 gusting 2 1.7
2019-Dec-05 02:54 197 1 gusting 1 1.7
2019-Dec-05 02:49 188 1 gusting 2 1.7
2019-Dec-05 02:44 220 1 gusting 2 1.7
2019-Dec-05 02:39 274 4 gusting 4 1.7
2019-Dec-05 02:34 296 5 gusting 5 1.7
2019-Dec-05 02:29 306 5 gusting 6 1.7
2019-Dec-05 02:24 221 1 gusting 2 1.7
2019-Dec-05 02:19 314 2 gusting 3 1.7
2019-Dec-05 02:14 222 2 gusting 3 1.7
2019-Dec-05 02:09 177 2 gusting 3 1.7
2019-Dec-05 02:04 277 4 gusting 5 1.7
2019-Dec-05 01:59 244 5 gusting 5 1.7
2019-Dec-05 01:54 353 2 gusting 3 1.7
2019-Dec-05 01:49 214 2 gusting 3 1.7
2019-Dec-05 01:44 177 1.7
2019-Dec-05 01:39 166 1 gusting 2 1.7
2019-Dec-05 01:34 040 1 gusting 2 1.7
2019-Dec-05 01:29 251 0 gusting 1 1.7
2019-Dec-05 01:24 177 2 gusting 3 1.7
2019-Dec-05 01:19 180 1 gusting 2 1.7
2019-Dec-05 01:14 012 2 gusting 3 1.7
2019-Dec-05 01:08 321 5 gusting 8 1.7
2019-Dec-05 01:03 289 6 gusting 7 1.7
2019-Dec-05 00:58 262 4 gusting 5 2.2
2019-Dec-05 00:53 263 3 gusting 4 2.2
2019-Dec-05 00:48 292 4 gusting 5 2.2
2019-Dec-05 00:43 305 7 gusting 8 2.2
2019-Dec-05 00:38 284 6 gusting 7 2.2
2019-Dec-05 00:33 297 6 gusting 8 2.2
2019-Dec-05 00:28 286 8 gusting 10 2.2
2019-Dec-05 00:23 314 9 gusting 11 2.2
2019-Dec-05 00:18 286 8 gusting 10 2.2
2019-Dec-05 00:13 282 8 gusting 10 2.2
2019-Dec-05 00:08 266 7 gusting 9 2.2
2019-Dec-05 00:03 252 7 gusting 11 2.2
2019-Dec-04 23:58 316 9 gusting 10 2.2
2019-Dec-04 23:53 314 5 gusting 6 2.2
2019-Dec-04 23:48 056 4 gusting 6 2.2
2019-Dec-04 23:38 225 3 gusting 4 2.2
2019-Dec-04 23:33 266 7 gusting 8 2.2
2019-Dec-04 23:28 054 7 gusting 9 2.2
2019-Dec-04 23:23 291 5 gusting 6 2.2
2019-Dec-04 23:18 322 6 gusting 7 2.2
2019-Dec-04 23:13 260 8 gusting 10 2.2
2019-Dec-04 23:07 265 5 gusting 7 2.8
2019-Dec-04 23:02 259 4 gusting 5 2.8
2019-Dec-04 22:57 356 9 gusting 10 2.8
2019-Dec-04 22:52 301 5 gusting 6 2.8
2019-Dec-04 22:47 319 5 gusting 7 2.8
2019-Dec-04 22:42 318 3 gusting 5 2.8
2019-Dec-04 22:37 079 5 gusting 6 2.8
2019-Dec-04 22:32 276 7 gusting 9 2.8
2019-Dec-04 22:27 273 4 gusting 6 2.8
2019-Dec-04 22:22 009 6 gusting 8 2.8
2019-Dec-04 22:17 352 5 gusting 6 2.8
2019-Dec-04 22:12 219 6 gusting 7 3.3
2019-Dec-04 22:07 257 3 gusting 3 3.3
2019-Dec-04 22:02 273 5 gusting 6 2.8
2019-Dec-04 21:57 301 9 gusting 11 3.3
2019-Dec-04 21:52 247 6 gusting 8 3.3
2019-Dec-04 21:47 238 8 gusting 10 3.3
2019-Dec-04 21:42 255 6 gusting 7 3.3
2019-Dec-04 21:37 255 6 gusting 7 3.3
2019-Dec-04 21:32 212 3 gusting 4 3.3
2019-Dec-04 21:27 223 4 gusting 6 3.3
2019-Dec-04 21:22 255 4 gusting 5 3.3
2019-Dec-04 21:17 294 5 gusting 6 3.3
2019-Dec-04 21:12 161 1 gusting 2 3.3
2019-Dec-04 21:07 248 3 gusting 5 3.3
2019-Dec-04 21:02 233 4 gusting 5 3.3
2019-Dec-04 20:57 238 3 gusting 4 3.3
2019-Dec-04 20:52 312 5 gusting 6 3.3
2019-Dec-04 20:47 312 5 gusting 6 3.3
2019-Dec-04 20:42 312 5 gusting 6 3.3
2019-Dec-04 20:37 312 5 gusting 6 3.3
2019-Dec-04 20:31 312 5 gusting 6 3.3
2019-Dec-04 20:26 251 6 gusting 7 3.3
2019-Dec-04 20:21 251 6 gusting 7 3.3
2019-Dec-04 20:16 176 3.3
2019-Dec-04 20:11 176 3.3
2019-Dec-04 20:01 176 3.3